createdAt,value
2019-06-20T00:00:21.920Z,23.91
2019-06-20T00:01:21.847Z,23.86
2019-06-20T00:02:21.773Z,23.88
2019-06-20T00:03:21.701Z,23.98
2019-06-20T00:04:21.630Z,23.93
2019-06-20T00:05:21.557Z,23.86
2019-06-20T00:06:21.486Z,23.91
2019-06-20T00:07:21.408Z,23.83
2019-06-20T00:08:21.332Z,23.91
2019-06-20T00:09:21.298Z,23.78
2019-06-20T00:10:21.191Z,23.81
2019-06-20T00:11:21.123Z,23.76
2019-06-20T00:12:21.045Z,23.76
2019-06-20T00:13:20.971Z,23.73
2019-06-20T00:14:20.899Z,23.71
2019-06-20T00:15:20.828Z,23.73
2019-06-20T00:16:20.750Z,23.69
2019-06-20T00:17:20.684Z,23.69
2019-06-20T00:18:20.602Z,23.68
2019-06-20T00:19:20.529Z,23.69
2019-06-20T00:20:20.462Z,23.83
2019-06-20T00:21:20.385Z,23.81
2019-06-20T00:22:20.327Z,23.87
2019-06-20T00:23:20.250Z,23.99
2019-06-20T00:24:20.173Z,24.03
2019-06-20T00:25:20.102Z,23.86
2019-06-20T00:26:20.025Z,23.93
2019-06-20T00:27:19.955Z,23.77
2019-06-20T00:28:19.877Z,23.81
2019-06-20T00:29:19.807Z,23.78
2019-06-20T00:30:19.730Z,23.81
2019-06-20T00:31:19.659Z,23.83
2019-06-20T00:32:19.587Z,23.78
2019-06-20T00:33:19.514Z,23.77
2019-06-20T00:34:19.489Z,23.81
2019-06-20T00:35:19.366Z,23.83
2019-06-20T00:36:19.347Z,23.78
2019-06-20T00:37:19.222Z,23.80
2019-06-20T00:38:19.175Z,23.84
2019-06-20T00:39:19.082Z,23.78
2019-06-20T00:40:19.003Z,23.83
2019-06-20T00:41:18.931Z,23.87
2019-06-20T00:42:18.858Z,23.91
2019-06-20T00:43:18.791Z,23.87
2019-06-20T00:44:18.709Z,23.93
2019-06-20T00:45:18.638Z,23.88
2019-06-20T00:46:18.578Z,23.84
2019-06-20T00:47:18.493Z,23.93
2019-06-20T00:48:18.413Z,23.92
2019-06-20T00:49:18.348Z,23.99
2019-06-20T00:50:18.279Z,23.95
2019-06-20T00:51:18.201Z,23.98
2019-06-20T00:52:18.126Z,24.05
2019-06-20T00:53:18.052Z,24.02
2019-06-20T00:54:17.976Z,24.11
2019-06-20T00:55:17.907Z,24.18
2019-06-20T00:56:17.836Z,24.20
2019-06-20T00:57:17.761Z,24.24
2019-06-20T00:58:17.687Z,24.21
2019-06-20T00:59:17.617Z,24.28
2019-06-20T01:00:17.545Z,24.29
2019-06-20T01:01:17.472Z,24.33
2019-06-20T01:02:17.447Z,24.33
2019-06-20T01:03:17.321Z,24.38
2019-06-20T01:04:17.249Z,24.38
2019-06-20T01:05:17.178Z,24.47
2019-06-20T01:06:17.120Z,24.38
2019-06-20T01:07:17.033Z,24.33
2019-06-20T01:08:16.958Z,24.35
2019-06-20T01:09:16.886Z,24.38
2019-06-20T01:10:16.813Z,24.35
2019-06-20T01:11:16.753Z,24.36
2019-06-20T01:12:16.667Z,24.42
2019-06-20T01:13:32.254Z,24.43
2019-06-20T01:14:16.524Z,24.43
2019-06-20T01:15:16.572Z,24.47
2019-06-20T01:16:16.373Z,24.47
2019-06-20T01:17:16.299Z,24.36
2019-06-20T01:18:16.229Z,24.36
2019-06-20T01:19:16.157Z,24.38
2019-06-20T01:20:16.085Z,24.29
2019-06-20T01:21:16.009Z,24.21
2019-06-20T01:22:15.945Z,24.26
2019-06-20T01:23:15.871Z,24.21
2019-06-20T01:24:15.792Z,24.13
2019-06-20T01:25:15.729Z,24.20
2019-06-20T01:26:15.652Z,24.16
2019-06-20T01:27:15.578Z,24.20
2019-06-20T01:28:15.504Z,24.20
2019-06-20T01:29:15.431Z,24.17
2019-06-20T01:30:15.354Z,24.08
2019-06-20T01:31:15.285Z,24.11
2019-06-20T01:32:15.214Z,23.99
2019-06-20T01:33:15.138Z,24.11
2019-06-20T01:34:15.069Z,24.10
2019-06-20T01:35:14.995Z,24.08
2019-06-20T01:36:14.933Z,24.05
2019-06-20T01:37:14.848Z,23.96
2019-06-20T01:38:14.782Z,23.99
2019-06-20T01:39:14.702Z,23.99
2019-06-20T01:40:14.630Z,23.98
2019-06-20T01:41:14.555Z,23.98
2019-06-20T01:42:14.485Z,24.02
2019-06-20T01:43:14.413Z,23.98
2019-06-20T01:44:14.334Z,24.03
2019-06-20T01:45:14.263Z,24.01
2019-06-20T01:46:14.199Z,24.01
2019-06-20T01:47:14.119Z,24.11
2019-06-20T01:48:14.045Z,24.08
2019-06-20T01:49:13.978Z,24.05
2019-06-20T01:50:13.912Z,24.06
2019-06-20T01:51:13.826Z,24.02
2019-06-20T01:52:13.748Z,24.13
2019-06-20T01:53:13.677Z,24.14
2019-06-20T01:54:13.612Z,24.11
2019-06-20T01:55:13.531Z,24.24
2019-06-20T01:56:13.465Z,24.17
2019-06-20T01:57:13.391Z,24.16
2019-06-20T01:58:13.317Z,24.23
2019-06-20T01:59:13.243Z,24.20
2019-06-20T02:00:13.175Z,24.18
2019-06-20T02:01:13.105Z,24.14
2019-06-20T02:02:13.026Z,24.08
2019-06-20T02:03:12.953Z,24.02
2019-06-20T02:04:12.891Z,24.02
2019-06-20T02:05:12.810Z,23.98
2019-06-20T02:06:12.738Z,24.05
2019-06-20T02:07:12.729Z,24.02
2019-06-20T02:08:12.584Z,24.02
2019-06-20T02:09:12.510Z,23.98
2019-06-20T02:10:12.446Z,24.01
2019-06-20T02:11:12.370Z,23.92
2019-06-20T02:12:12.294Z,23.91
2019-06-20T02:13:12.222Z,23.87
2019-06-20T02:14:12.161Z,23.80
2019-06-20T02:15:12.086Z,23.81
2019-06-20T02:16:11.995Z,23.86
2019-06-20T02:17:11.934Z,23.81
2019-06-20T02:18:11.856Z,23.81
2019-06-20T02:19:11.788Z,23.84
2019-06-20T02:20:11.714Z,23.78
2019-06-20T02:21:11.636Z,23.78
2019-06-20T02:22:11.566Z,23.63
2019-06-20T02:23:11.492Z,23.54
2019-06-20T02:24:11.417Z,23.40
2019-06-20T02:25:11.346Z,23.36
2019-06-20T02:26:11.310Z,23.37
2019-06-20T02:27:11.202Z,23.32
2019-06-20T02:28:11.126Z,23.21
2019-06-20T02:29:11.053Z,23.32
2019-06-20T02:30:10.978Z,23.36
2019-06-20T02:31:10.908Z,23.21
2019-06-20T02:32:10.833Z,23.24
2019-06-20T02:33:10.757Z,23.21
2019-06-20T02:34:10.691Z,23.34
2019-06-20T02:35:10.633Z,23.23
2019-06-20T02:36:10.549Z,23.18
2019-06-20T02:37:10.467Z,23.24
2019-06-20T02:38:10.401Z,23.23
2019-06-20T02:39:10.321Z,23.12
2019-06-20T02:40:10.247Z,23.23
2019-06-20T02:41:10.170Z,23.02
2019-06-20T02:42:10.098Z,23.13
2019-06-20T02:43:10.023Z,23.09
2019-06-20T02:44:28.290Z,23.03
2019-06-20T02:45:09.883Z,23.05
2019-06-20T02:46:09.811Z,23.12
2019-06-20T02:47:09.732Z,23.05
2019-06-20T02:48:09.664Z,23.12
2019-06-20T02:49:09.582Z,23.17
2019-06-20T02:50:09.522Z,23.21
2019-06-20T02:51:09.435Z,23.21
2019-06-20T02:52:09.361Z,23.23
2019-06-20T02:53:09.285Z,23.20
2019-06-20T02:54:09.218Z,23.20
2019-06-20T02:55:09.140Z,23.20
2019-06-20T02:56:09.070Z,23.21
2019-06-20T02:57:11.730Z,23.17
2019-06-20T02:58:16.581Z,23.13
2019-06-20T03:00:13.247Z,23.32
2019-06-20T03:01:13.156Z,23.25
2019-06-20T03:03:17.469Z,23.31
2019-06-20T03:04:17.382Z,23.39
2019-06-20T03:06:21.685Z,23.40
2019-06-20T03:07:21.606Z,23.32
2019-06-20T03:09:26.917Z,23.32
2019-06-20T03:10:26.833Z,23.31
2019-06-20T03:12:31.150Z,23.32
2019-06-20T03:13:31.062Z,23.32
2019-06-20T03:15:35.378Z,23.34
2019-06-20T03:16:35.300Z,23.37
2019-06-20T03:18:28.594Z,23.31
2019-06-20T03:19:28.463Z,23.37
2019-06-20T03:21:33.769Z,23.37
2019-06-20T03:22:33.731Z,23.31
2019-06-20T03:24:38.010Z,23.37
2019-06-20T03:25:37.922Z,23.37
2019-06-20T03:26:37.850Z,23.41
2019-06-20T03:27:37.769Z,23.37
2019-06-20T03:28:37.701Z,23.43
2019-06-20T03:29:37.749Z,23.34
2019-06-20T03:30:37.565Z,23.44
2019-06-20T03:31:37.476Z,23.39
2019-06-20T03:32:37.405Z,23.37
2019-06-20T03:33:37.333Z,23.36
2019-06-20T03:34:37.259Z,23.40
2019-06-20T03:35:37.186Z,23.39
2019-06-20T03:36:37.113Z,23.32
2019-06-20T03:37:37.041Z,23.40
2019-06-20T03:38:36.965Z,23.41
2019-06-20T03:39:36.892Z,23.31
2019-06-20T03:40:36.817Z,23.28
2019-06-20T03:41:36.754Z,23.39
2019-06-20T03:42:36.670Z,23.25
2019-06-20T03:43:36.599Z,23.36
2019-06-20T03:44:36.525Z,23.21
2019-06-20T03:45:36.450Z,23.18
2019-06-20T03:46:36.373Z,23.06
2019-06-20T03:47:36.304Z,23.06
2019-06-20T03:48:36.234Z,22.98
2019-06-20T03:49:36.167Z,23.05
2019-06-20T03:50:36.103Z,23.05
2019-06-20T03:51:36.010Z,23.06
2019-06-20T03:52:35.936Z,23.18
2019-06-20T03:53:35.866Z,23.18
2019-06-20T03:54:35.794Z,23.34
2019-06-20T03:55:35.715Z,23.44
2019-06-20T03:56:35.642Z,23.43
2019-06-20T03:57:35.567Z,23.51
2019-06-20T03:58:35.494Z,23.47
2019-06-20T03:59:35.434Z,23.50
2019-06-20T04:00:35.350Z,23.39
2019-06-20T04:01:35.281Z,23.43
2019-06-20T04:02:35.197Z,23.40
2019-06-20T04:03:35.127Z,23.44
2019-06-20T04:04:35.053Z,23.43
2019-06-20T04:05:34.999Z,23.40
2019-06-20T04:06:34.900Z,23.50
2019-06-20T04:07:34.832Z,23.48
2019-06-20T04:08:34.761Z,23.55
2019-06-20T04:09:34.687Z,23.48
2019-06-20T04:10:34.657Z,23.56
2019-06-20T04:11:34.541Z,23.44
2019-06-20T04:12:34.466Z,23.61
2019-06-20T04:13:34.394Z,23.54
2019-06-20T04:14:34.315Z,23.55
2019-06-20T04:15:34.243Z,23.55
2019-06-20T04:16:34.179Z,23.51
2019-06-20T04:17:34.095Z,23.41
2019-06-20T04:18:34.028Z,23.39
2019-06-20T04:19:33.951Z,23.39
2019-06-20T04:20:33.880Z,23.50
2019-06-20T04:21:33.803Z,23.40
2019-06-20T04:22:33.734Z,23.48
2019-06-20T04:23:33.656Z,23.47
2019-06-20T04:24:33.592Z,23.44
2019-06-20T04:25:33.517Z,23.56
2019-06-20T04:26:33.440Z,23.39
2019-06-20T04:27:33.360Z,23.50
2019-06-20T04:28:33.291Z,23.55
2019-06-20T04:29:35.851Z,23.47
2019-06-20T04:30:33.143Z,23.46
2019-06-20T04:31:33.077Z,23.54
2019-06-20T04:32:32.996Z,23.41
2019-06-20T04:33:32.925Z,23.36
2019-06-20T04:34:32.846Z,23.36
2019-06-20T04:35:32.781Z,23.24
2019-06-20T04:36:32.712Z,23.18
2019-06-20T04:37:32.631Z,23.17
2019-06-20T04:38:32.556Z,23.20
2019-06-20T04:39:32.482Z,23.18
2019-06-20T04:40:32.416Z,23.20
2019-06-20T04:41:32.344Z,23.21
2019-06-20T04:42:32.265Z,23.15
2019-06-20T04:43:32.193Z,23.10
2019-06-20T04:44:32.111Z,23.06
2019-06-20T04:45:35.601Z,23.00
2019-06-20T04:46:31.966Z,22.98
2019-06-20T04:47:31.894Z,22.96
2019-06-20T04:48:31.820Z,22.88
2019-06-20T04:49:31.742Z,22.81
2019-06-20T04:50:31.679Z,22.90
2019-06-20T04:51:31.601Z,22.90
2019-06-20T04:52:31.530Z,22.87
2019-06-20T04:53:31.454Z,22.88
2019-06-20T04:54:31.379Z,22.85
2019-06-20T04:55:31.315Z,22.75
2019-06-20T04:56:31.233Z,22.78
2019-06-20T04:57:31.158Z,22.78
2019-06-20T04:58:31.088Z,22.76
2019-06-20T04:59:31.009Z,22.83
2019-06-20T05:00:30.939Z,22.66
2019-06-20T05:01:30.866Z,22.66
2019-06-20T05:02:30.796Z,22.55
2019-06-20T05:03:30.829Z,22.68
2019-06-20T05:04:30.646Z,22.50
2019-06-20T05:05:30.591Z,22.60
2019-06-20T05:06:30.491Z,22.63
2019-06-20T05:07:30.424Z,22.63
2019-06-20T05:08:30.350Z,22.59
2019-06-20T05:09:30.277Z,22.66
2019-06-20T05:10:30.201Z,22.62
2019-06-20T05:11:30.128Z,22.65
2019-06-20T05:12:30.061Z,22.70
2019-06-20T05:13:29.982Z,22.69
2019-06-20T05:14:29.922Z,22.73
2019-06-20T05:15:29.832Z,22.68
2019-06-20T05:16:29.763Z,22.70
2019-06-20T05:17:29.685Z,22.69
2019-06-20T05:18:29.614Z,22.70
2019-06-20T05:19:29.537Z,22.75
2019-06-20T05:20:29.467Z,22.83
2019-06-20T05:21:29.395Z,22.80
2019-06-20T05:22:29.318Z,22.81
2019-06-20T05:23:29.242Z,22.88
2019-06-20T05:24:29.170Z,22.93
2019-06-20T05:25:29.100Z,22.84
2019-06-20T05:26:29.022Z,22.98
2019-06-20T05:27:28.949Z,22.96
2019-06-20T05:28:28.874Z,22.98
2019-06-20T05:29:28.798Z,23.03
2019-06-20T05:30:28.740Z,23.09
2019-06-20T05:31:28.850Z,23.00
2019-06-20T05:32:28.589Z,23.03
2019-06-20T05:35:11.564Z,23.08
2019-06-20T05:36:11.473Z,23.05
2019-06-20T05:38:15.781Z,22.96
2019-06-20T05:39:15.708Z,22.98
2019-06-20T05:40:15.629Z,23.00
2019-06-20T05:41:15.555Z,22.98
2019-06-20T05:42:15.483Z,22.87
2019-06-20T05:43:15.437Z,22.76
2019-06-20T05:44:15.333Z,22.78
2019-06-20T05:45:15.262Z,22.81
2019-06-20T05:46:15.192Z,22.75
2019-06-20T05:47:15.112Z,22.76
2019-06-20T05:48:15.041Z,22.90
2019-06-20T05:49:14.973Z,22.81
2019-06-20T05:50:14.895Z,22.84
2019-06-20T05:51:14.818Z,22.85
2019-06-20T05:52:14.748Z,22.78
2019-06-20T05:53:14.672Z,22.78
2019-06-20T05:54:14.594Z,22.84
2019-06-20T05:55:15.339Z,22.76
2019-06-20T05:56:14.453Z,22.85
2019-06-20T05:57:14.388Z,22.88
2019-06-20T05:58:14.300Z,22.83
2019-06-20T05:59:14.233Z,22.90
2019-06-20T06:00:14.154Z,22.98
2019-06-20T06:01:14.126Z,22.88
2019-06-20T06:02:14.028Z,22.93
2019-06-20T06:03:13.939Z,22.84
2019-06-20T06:04:13.860Z,22.83
2019-06-20T06:05:13.793Z,22.94
2019-06-20T06:06:13.717Z,22.88
2019-06-20T06:07:14.348Z,22.85
2019-06-20T06:08:13.573Z,22.93
2019-06-20T06:09:13.494Z,22.80
2019-06-20T06:10:13.429Z,22.85
2019-06-20T06:11:13.365Z,22.85
2019-06-20T06:12:13.269Z,22.90
2019-06-20T06:13:13.201Z,22.84
2019-06-20T06:14:13.869Z,22.90
2019-06-20T06:15:13.053Z,22.88
2019-06-20T06:16:25.671Z,22.94
2019-06-20T06:17:12.918Z,22.87
2019-06-20T06:18:12.832Z,22.91
2019-06-20T06:19:12.759Z,22.96
2019-06-20T06:20:12.689Z,22.88
2019-06-20T06:21:12.631Z,22.99
2019-06-20T06:22:12.639Z,22.98
2019-06-20T06:23:12.777Z,23.02
2019-06-20T06:24:12.670Z,23.00
2019-06-20T06:25:12.764Z,23.05
2019-06-20T06:26:12.255Z,23.05
2019-06-20T06:27:12.172Z,23.00
2019-06-20T06:28:12.703Z,23.03
2019-06-20T06:29:12.027Z,23.06
2019-06-20T06:30:11.967Z,23.00
2019-06-20T06:31:11.876Z,23.09
2019-06-20T06:32:11.804Z,23.03
2019-06-20T06:33:11.730Z,22.88
2019-06-20T06:34:11.663Z,22.80
2019-06-20T06:35:11.593Z,22.66
2019-06-20T06:36:11.511Z,22.73
2019-06-20T06:37:11.439Z,22.63
2019-06-20T06:38:11.369Z,22.63
2019-06-20T06:39:11.295Z,22.69
2019-06-20T06:40:11.218Z,22.70
2019-06-20T06:41:11.147Z,22.76
2019-06-20T06:42:11.076Z,22.78
2019-06-20T06:43:11.001Z,22.94
2019-06-20T06:44:10.927Z,22.87
2019-06-20T06:45:10.853Z,22.88
2019-06-20T06:46:10.789Z,22.90
2019-06-20T06:47:10.702Z,22.93
2019-06-20T06:48:10.632Z,22.93
2019-06-20T06:49:10.563Z,22.94
2019-06-20T06:50:10.492Z,22.94
2019-06-20T06:51:10.417Z,22.84
2019-06-20T06:52:10.354Z,22.96
2019-06-20T06:53:10.271Z,22.87
2019-06-20T06:54:10.194Z,22.87
2019-06-20T06:55:10.126Z,22.88
2019-06-20T06:56:10.051Z,22.99
2019-06-20T06:57:09.980Z,22.98
2019-06-20T06:58:09.904Z,22.94
2019-06-20T06:59:09.838Z,23.03
2019-06-20T07:00:09.760Z,22.98
2019-06-20T07:01:10.358Z,22.93
2019-06-20T07:02:09.612Z,22.90
2019-06-20T07:03:09.537Z,22.94
2019-06-20T07:04:09.463Z,22.88
2019-06-20T07:05:09.387Z,22.99
2019-06-20T07:06:09.334Z,23.00
2019-06-20T07:07:09.245Z,23.03
2019-06-20T07:08:09.172Z,23.12
2019-06-20T07:09:09.100Z,23.09
2019-06-20T07:10:09.031Z,23.08
2019-06-20T07:11:08.960Z,23.05
2019-06-20T07:12:08.883Z,23.03
2019-06-20T07:13:08.810Z,23.06
2019-06-20T07:14:08.736Z,23.02
2019-06-20T07:15:08.663Z,23.15
2019-06-20T07:16:08.585Z,23.06
2019-06-20T07:17:08.523Z,23.05
2019-06-20T07:18:08.442Z,23.10
2019-06-20T07:19:08.365Z,23.20
2019-06-20T07:20:08.320Z,23.17
2019-06-20T07:21:08.276Z,23.23
2019-06-20T07:22:08.148Z,23.23
2019-06-20T07:23:08.080Z,23.24
2019-06-20T07:24:08.027Z,23.20
2019-06-20T07:25:07.930Z,23.18
2019-06-20T07:26:07.862Z,23.20
2019-06-20T07:27:07.794Z,23.20
2019-06-20T07:28:07.729Z,23.06
2019-06-20T07:29:07.642Z,23.03
2019-06-20T07:30:07.569Z,23.21
2019-06-20T07:31:07.494Z,23.17
2019-06-20T07:32:07.418Z,23.20
2019-06-20T07:33:07.352Z,23.24
2019-06-20T07:34:07.275Z,23.18
2019-06-20T07:35:07.195Z,23.18
2019-06-20T07:36:07.125Z,23.18
2019-06-20T07:37:07.061Z,23.20
2019-06-20T07:38:06.981Z,23.20
2019-06-20T07:39:06.912Z,23.20
2019-06-20T07:40:06.834Z,23.21
2019-06-20T07:41:06.763Z,23.28
2019-06-20T07:42:06.688Z,23.24
2019-06-20T07:43:06.639Z,23.32
2019-06-20T07:44:06.542Z,23.34
2019-06-20T07:45:06.467Z,23.37
2019-06-20T07:46:06.398Z,23.43
2019-06-20T07:47:17.196Z,23.50
2019-06-20T07:48:06.249Z,23.37
2019-06-20T07:49:06.181Z,23.46
2019-06-20T07:50:06.108Z,23.51
2019-06-20T07:51:06.034Z,23.47
2019-06-20T07:52:05.958Z,23.55
2019-06-20T07:53:05.888Z,23.61
2019-06-20T07:54:05.822Z,23.56
2019-06-20T07:55:05.740Z,23.59
2019-06-20T07:56:09.182Z,23.54
2019-06-20T07:57:05.597Z,23.66
2019-06-20T07:58:05.593Z,23.58
2019-06-20T07:59:05.449Z,23.59
2019-06-20T08:00:05.381Z,23.66
2019-06-20T08:01:05.306Z,23.63
2019-06-20T08:02:05.233Z,23.65
2019-06-20T08:03:05.162Z,23.66
2019-06-20T08:04:05.141Z,23.71
2019-06-20T08:05:05.118Z,23.74
2019-06-20T08:06:04.964Z,23.78
2019-06-20T08:07:04.870Z,23.86
2019-06-20T08:08:04.815Z,23.83
2019-06-20T08:09:04.769Z,23.84
2019-06-20T08:10:04.785Z,23.84
2019-06-20T08:11:04.584Z,23.91
2019-06-20T08:12:04.506Z,23.92
2019-06-20T08:13:04.431Z,24.05
2019-06-20T08:14:04.360Z,24.02
2019-06-20T08:15:14.424Z,24.01
2019-06-20T08:16:04.306Z,24.06
2019-06-20T08:17:04.199Z,24.03
2019-06-20T08:18:04.076Z,24.02
2019-06-20T08:19:04.064Z,24.05
2019-06-20T08:20:03.928Z,24.17
2019-06-20T08:21:03.848Z,24.17
2019-06-20T08:22:03.785Z,24.21
2019-06-20T08:23:03.721Z,24.18
2019-06-20T08:24:03.636Z,24.18
2019-06-20T08:25:03.596Z,24.18
2019-06-20T08:26:04.552Z,24.21
2019-06-20T08:27:04.777Z,24.14
2019-06-20T08:28:04.354Z,24.21
2019-06-20T08:29:16.156Z,24.24
2019-06-20T08:30:03.552Z,24.20
2019-06-20T08:31:03.142Z,24.16
2019-06-20T08:32:04.416Z,24.18
2019-06-20T08:33:08.723Z,24.17
2019-06-20T08:34:04.314Z,24.28
2019-06-20T08:35:04.395Z,24.35
2019-06-20T08:36:02.784Z,24.30
2019-06-20T08:37:02.701Z,24.36
2019-06-20T08:38:03.736Z,24.35
2019-06-20T08:39:02.708Z,24.32
2019-06-20T08:40:02.490Z,24.38
2019-06-20T08:41:02.441Z,24.35
2019-06-20T08:42:02.354Z,24.39
2019-06-20T08:43:02.387Z,24.42
2019-06-20T08:44:02.197Z,24.40
2019-06-20T08:45:02.141Z,24.39
2019-06-20T08:46:02.056Z,24.30
2019-06-20T08:47:02.343Z,24.30
2019-06-20T08:48:02.626Z,24.33
2019-06-20T08:49:01.840Z,24.36
2019-06-20T08:50:01.770Z,24.45
2019-06-20T08:51:02.241Z,24.38
2019-06-20T08:52:01.633Z,24.32
2019-06-20T08:53:01.797Z,24.38
2019-06-20T08:54:01.482Z,24.38
2019-06-20T08:55:01.409Z,24.43
2019-06-20T08:56:01.339Z,24.48
2019-06-20T08:57:01.269Z,24.42
2019-06-20T08:58:01.728Z,24.47
2019-06-20T08:59:23.473Z,24.38
2019-06-20T09:02:06.380Z,24.38
2019-06-20T09:04:11.765Z,24.36
2019-06-20T09:05:11.619Z,24.35
2019-06-20T09:06:11.535Z,24.40
2019-06-20T09:07:11.472Z,24.35
2019-06-20T09:08:12.036Z,24.35
2019-06-20T09:09:11.325Z,24.35
2019-06-20T09:10:11.264Z,24.35
2019-06-20T09:11:11.187Z,24.38
2019-06-20T09:12:11.183Z,24.28
2019-06-20T09:13:11.061Z,24.30
2019-06-20T09:14:11.002Z,24.30
2019-06-20T09:15:10.894Z,24.29
2019-06-20T09:16:23.980Z,24.43
2019-06-20T09:17:10.767Z,24.38
2019-06-20T09:18:10.683Z,24.35
2019-06-20T09:19:10.614Z,24.38
2019-06-20T09:20:10.540Z,24.32
2019-06-20T09:21:10.467Z,24.32
2019-06-20T09:22:10.408Z,24.21
2019-06-20T09:23:10.327Z,24.29
2019-06-20T09:24:10.265Z,24.26
2019-06-20T09:25:10.188Z,24.24
2019-06-20T09:26:10.106Z,24.11
2019-06-20T09:27:10.034Z,24.24
2019-06-20T09:28:09.978Z,24.29
2019-06-20T09:29:09.892Z,24.26
2019-06-20T09:30:09.826Z,24.28
2019-06-20T09:31:09.756Z,24.26
2019-06-20T09:32:09.687Z,24.35
2019-06-20T09:33:09.609Z,24.38
2019-06-20T09:34:09.706Z,24.38
2019-06-20T09:35:09.498Z,24.26
2019-06-20T09:36:09.391Z,24.13
2019-06-20T09:37:09.324Z,24.28
2019-06-20T09:38:09.295Z,24.21
2019-06-20T09:39:09.173Z,24.26
2019-06-20T09:40:09.103Z,24.10
2019-06-20T09:41:09.027Z,24.01
2019-06-20T09:42:08.958Z,24.05
2019-06-20T09:43:08.888Z,23.91
2019-06-20T09:44:08.815Z,23.92
2019-06-20T09:45:08.749Z,23.93
2019-06-20T09:46:08.689Z,23.99
2019-06-20T09:47:08.601Z,24.01
2019-06-20T09:48:08.530Z,24.01
2019-06-20T09:49:08.457Z,24.06
2019-06-20T09:50:08.382Z,24.05
2019-06-20T09:51:08.314Z,24.03
2019-06-20T09:52:08.254Z,23.99
2019-06-20T09:53:08.183Z,24.02
2019-06-20T09:54:08.098Z,24.01
2019-06-20T09:55:08.029Z,24.01
2019-06-20T09:56:07.953Z,24.02
2019-06-20T09:57:07.882Z,24.02
2019-06-20T09:58:07.813Z,24.02
2019-06-20T09:59:07.756Z,23.99
2019-06-20T10:00:10.701Z,24.06
2019-06-20T10:01:07.617Z,24.06
2019-06-20T10:02:07.524Z,24.11
2019-06-20T10:03:07.456Z,24.10
2019-06-20T10:04:07.376Z,24.23
2019-06-20T10:05:07.328Z,24.24
2019-06-20T10:06:13.831Z,24.23
2019-06-20T10:07:07.173Z,24.23
2019-06-20T10:08:07.100Z,24.24
2019-06-20T10:09:07.018Z,24.30
2019-06-20T10:10:06.973Z,24.32
2019-06-20T10:11:06.876Z,24.30
2019-06-20T10:12:06.803Z,24.28
2019-06-20T10:13:06.727Z,24.20
2019-06-20T10:14:06.698Z,24.14
2019-06-20T10:15:06.594Z,24.11
2019-06-20T10:16:06.525Z,24.17
2019-06-20T10:17:06.448Z,24.13
2019-06-20T10:18:06.375Z,24.16
2019-06-20T10:19:06.307Z,24.18
2019-06-20T10:20:06.230Z,24.14
2019-06-20T10:21:06.156Z,24.18
2019-06-20T10:22:06.096Z,24.14
2019-06-20T10:23:06.087Z,24.21
2019-06-20T10:24:05.943Z,24.20
2019-06-20T10:25:05.873Z,24.13
2019-06-20T10:26:05.810Z,24.16
2019-06-20T10:27:05.735Z,24.17
2019-06-20T10:28:05.659Z,24.18
2019-06-20T10:29:05.586Z,24.13
2019-06-20T10:30:14.373Z,24.24
2019-06-20T10:31:05.461Z,24.30
2019-06-20T10:32:05.371Z,24.24
2019-06-20T10:33:05.295Z,24.32
2019-06-20T10:34:05.236Z,24.33
2019-06-20T10:35:05.157Z,24.38
2019-06-20T10:36:05.082Z,24.32
2019-06-20T10:37:05.020Z,24.38
2019-06-20T10:38:04.935Z,24.42
2019-06-20T10:39:04.880Z,24.50
2019-06-20T10:40:04.799Z,24.50
2019-06-20T10:41:04.726Z,24.53
2019-06-20T10:42:04.652Z,24.57
2019-06-20T10:43:04.584Z,24.61
2019-06-20T10:44:04.511Z,24.60
2019-06-20T10:45:04.437Z,24.68
2019-06-20T10:46:04.376Z,24.66
2019-06-20T10:47:04.336Z,24.65
2019-06-20T10:48:04.226Z,24.66
2019-06-20T10:49:04.169Z,24.70
2019-06-20T10:50:04.083Z,24.70
2019-06-20T10:51:04.010Z,24.74
2019-06-20T10:52:03.939Z,24.74
2019-06-20T10:53:03.869Z,24.69
2019-06-20T10:54:03.803Z,24.61
2019-06-20T10:55:03.733Z,24.58
2019-06-20T10:56:03.659Z,24.68
2019-06-20T10:57:03.586Z,24.66
2019-06-20T10:58:03.516Z,24.60
2019-06-20T10:59:03.449Z,24.68
2019-06-20T11:00:03.373Z,24.61
2019-06-20T11:01:03.299Z,24.68
2019-06-20T11:02:03.234Z,24.70
2019-06-20T11:03:03.161Z,24.78
2019-06-20T11:04:03.089Z,24.76
2019-06-20T11:05:03.018Z,24.86
2019-06-20T11:06:02.957Z,24.86
2019-06-20T11:07:02.874Z,24.92
2019-06-20T11:08:02.808Z,24.99
2019-06-20T11:09:02.732Z,25.04
2019-06-20T11:10:02.670Z,25.04
2019-06-20T11:11:02.604Z,25.07
2019-06-20T11:12:02.518Z,25.10
2019-06-20T11:13:02.451Z,24.93
2019-06-20T11:14:02.380Z,25.04
2019-06-20T11:15:02.329Z,25.04
2019-06-20T11:16:02.248Z,25.01
2019-06-20T11:17:02.168Z,25.04
2019-06-20T11:18:02.425Z,25.06
2019-06-20T11:19:02.033Z,25.04
2019-06-20T11:20:01.956Z,25.07
2019-06-20T11:21:01.887Z,25.06
2019-06-20T11:22:01.847Z,25.08
2019-06-20T11:23:01.750Z,25.07
2019-06-20T11:24:01.674Z,25.16
2019-06-20T11:25:01.602Z,25.13
2019-06-20T11:26:01.534Z,25.26
2019-06-20T11:27:01.463Z,25.17
2019-06-20T11:28:01.392Z,25.16
2019-06-20T11:29:01.325Z,25.22
2019-06-20T11:30:01.324Z,25.28
2019-06-20T11:31:01.193Z,25.29
2019-06-20T11:32:01.119Z,25.32
2019-06-20T11:33:01.040Z,25.35
2019-06-20T11:34:00.970Z,25.29
2019-06-20T11:35:00.902Z,25.46
2019-06-20T11:36:00.831Z,25.46
2019-06-20T11:37:00.761Z,25.53
2019-06-20T11:38:00.692Z,25.55
2019-06-20T11:39:00.622Z,25.60
2019-06-20T11:40:00.549Z,25.73
2019-06-20T11:41:00.484Z,25.70
2019-06-20T11:42:00.410Z,25.78
2019-06-20T11:43:00.340Z,25.73
2019-06-20T11:44:00.269Z,25.80
2019-06-20T11:45:00.199Z,25.81
2019-06-20T11:46:00.138Z,25.93
2019-06-20T11:47:00.064Z,25.83
2019-06-20T11:47:59.990Z,25.93
2019-06-20T11:48:59.922Z,25.88
2019-06-20T11:49:59.883Z,25.96
2019-06-20T11:50:59.793Z,25.93
2019-06-20T11:51:59.713Z,25.99
2019-06-20T11:52:59.644Z,25.96
2019-06-20T11:53:59.571Z,26.00
2019-06-20T11:54:59.501Z,26.02
2019-06-20T11:55:59.442Z,25.96
2019-06-20T11:56:59.367Z,26.03
2019-06-20T11:57:59.293Z,26.09
2019-06-20T11:58:59.229Z,26.15
2019-06-20T11:59:59.159Z,26.21
2019-06-20T12:01:03.802Z,26.21
2019-06-20T12:01:59.021Z,26.18
2019-06-20T12:02:58.954Z,26.28
2019-06-20T12:03:58.878Z,26.29
2019-06-20T12:04:58.813Z,26.41
2019-06-20T12:05:58.745Z,26.33
2019-06-20T12:06:58.677Z,26.25
2019-06-20T12:07:58.607Z,26.34
2019-06-20T12:08:58.538Z,26.31
2019-06-20T12:09:58.468Z,26.31
2019-06-20T12:10:58.400Z,26.26
2019-06-20T12:11:58.332Z,26.34
2019-06-20T12:12:58.261Z,26.36
2019-06-20T12:13:58.196Z,26.37
2019-06-20T12:14:58.120Z,26.48
2019-06-20T12:15:58.053Z,26.38
2019-06-20T12:16:57.987Z,26.34
2019-06-20T12:17:58.765Z,26.43
2019-06-20T12:18:57.849Z,26.45
2019-06-20T12:19:57.782Z,26.45
2019-06-20T12:20:57.718Z,26.47
2019-06-20T12:21:57.644Z,26.51
2019-06-20T12:22:57.605Z,26.48
2019-06-20T12:23:57.519Z,26.41
2019-06-20T12:24:57.442Z,26.38
2019-06-20T12:25:57.375Z,26.43
2019-06-20T12:26:57.310Z,26.38
2019-06-20T12:27:57.231Z,26.36
2019-06-20T12:28:57.167Z,26.33
2019-06-20T12:29:57.099Z,26.28
2019-06-20T12:30:57.036Z,26.29
2019-06-20T12:31:56.960Z,26.29
2019-06-20T12:32:56.909Z,26.23
2019-06-20T12:33:56.827Z,26.23
2019-06-20T12:34:56.758Z,26.22
2019-06-20T12:35:56.688Z,26.23
2019-06-20T12:36:56.680Z,26.07
2019-06-20T12:37:56.555Z,26.07
2019-06-20T12:38:56.531Z,26.06
2019-06-20T12:39:56.412Z,26.02
2019-06-20T12:40:56.346Z,25.96
2019-06-20T12:41:56.276Z,25.98
2019-06-20T12:42:56.211Z,25.95
2019-06-20T12:43:56.132Z,25.80
2019-06-20T12:44:56.079Z,25.81
2019-06-20T12:45:56.000Z,25.87
2019-06-20T12:46:55.940Z,25.84
2019-06-20T12:47:55.867Z,25.80
2019-06-20T12:48:55.808Z,25.75
2019-06-20T12:49:55.720Z,25.63
2019-06-20T12:50:55.663Z,25.66
2019-06-20T12:51:55.625Z,25.68
2019-06-20T12:52:55.514Z,25.60
2019-06-20T12:53:55.439Z,25.65
2019-06-20T12:54:55.369Z,25.68
2019-06-20T12:55:55.302Z,25.65
2019-06-20T12:56:55.226Z,25.63
2019-06-20T12:57:55.164Z,25.65
2019-06-20T12:58:55.099Z,25.66
2019-06-20T12:59:55.050Z,25.68
2019-06-20T13:00:54.961Z,25.59
2019-06-20T13:01:54.879Z,25.62
2019-06-20T13:02:54.808Z,25.60
2019-06-20T13:03:54.739Z,25.63
2019-06-20T13:04:54.676Z,25.55
2019-06-20T13:05:54.602Z,25.60
2019-06-20T13:06:54.528Z,25.47